sensor_id;sensor_type;location;lat;lon;timestamp;P1;durP1;ratioP1;P2;durP2;ratioP2
31095;SDS011;17749;51.962;8.560;2023-04-08T05:03:13;15.82;;;10.68;;
31095;SDS011;17749;51.962;8.560;2023-04-08T05:05:42;16.25;;;10.63;;
31095;SDS011;17749;51.962;8.560;2023-04-08T05:08:09;15.68;;;9.75;;
31095;SDS011;17749;51.962;8.560;2023-04-08T05:10:35;18.25;;;10.88;;
31095;SDS011;17749;51.962;8.560;2023-04-08T05:13:02;16.42;;;10.73;;
31095;SDS011;17749;51.962;8.560;2023-04-08T05:15:29;17.73;;;10.77;;
31095;SDS011;17749;51.962;8.560;2023-04-08T05:17:56;17.27;;;10.35;;
31095;SDS011;17749;51.962;8.560;2023-04-08T05:20:23;17.05;;;9.75;;
31095;SDS011;17749;51.962;8.560;2023-04-08T05:22:50;15.27;;;10.70;;
31095;SDS011;17749;51.962;8.560;2023-04-08T05:25:17;14.35;;;9.57;;
31095;SDS011;17749;51.962;8.560;2023-04-08T05:27:45;16.20;;;10.15;;
31095;SDS011;17749;51.962;8.560;2023-04-08T05:30:12;15.40;;;10.90;;
31095;SDS011;17749;51.962;8.560;2023-04-08T05:32:39;16.42;;;10.48;;
31095;SDS011;17749;51.962;8.560;2023-04-08T05:35:07;17.05;;;9.93;;
31095;SDS011;17749;51.962;8.560;2023-04-08T05:37:40;15.85;;;10.63;;
31095;SDS011;17749;51.962;8.560;2023-04-08T05:40:07;15.18;;;9.18;;
31095;SDS011;17749;51.962;8.560;2023-04-08T05:42:34;12.15;;;8.25;;
31095;SDS011;17749;51.962;8.560;2023-04-08T05:45:04;13.35;;;9.48;;
31095;SDS011;17749;51.962;8.560;2023-04-08T05:47:31;18.38;;;9.30;;
31095;SDS011;17749;51.962;8.560;2023-04-08T05:49:58;14.70;;;9.52;;
31095;SDS011;17749;51.962;8.560;2023-04-08T05:52:25;13.88;;;8.98;;
31095;SDS011;17749;51.962;8.560;2023-04-08T05:55:02;14.05;;;8.98;;
31095;SDS011;17749;51.962;8.560;2023-04-08T05:57:29;13.15;;;8.65;;
31095;SDS011;17749;51.962;8.560;2023-04-08T05:59:56;14.48;;;8.90;;
31095;SDS011;17749;51.962;8.560;2023-04-08T06:02:23;12.13;;;7.82;;
31095;SDS011;17749;51.962;8.560;2023-04-08T06:04:51;13.32;;;8.32;;
31095;SDS011;17749;51.962;8.560;2023-04-08T06:07:18;12.93;;;8.23;;
31095;SDS011;17749;51.962;8.560;2023-04-08T06:09:45;11.75;;;8.25;;
31095;SDS011;17749;51.962;8.560;2023-04-08T06:12:12;12.10;;;8.18;;
31095;SDS011;17749;51.962;8.560;2023-04-08T06:14:39;10.93;;;7.35;;
31095;SDS011;17749;51.962;8.560;2023-04-08T06:17:06;15.65;;;8.75;;
31095;SDS011;17749;51.962;8.560;2023-04-08T06:19:34;10.43;;;7.35;;
31095;SDS011;17749;51.962;8.560;2023-04-08T06:22:04;12.93;;;7.55;;
31095;SDS011;17749;51.962;8.560;2023-04-08T06:24:33;13.88;;;7.88;;
31095;SDS011;17749;51.962;8.560;2023-04-08T06:27:00;12.88;;;7.28;;
31095;SDS011;17749;51.962;8.560;2023-04-08T06:29:27;12.02;;;7.57;;
31095;SDS011;17749;51.962;8.560;2023-04-08T06:31:55;17.83;;;8.77;;
31095;SDS011;17749;51.962;8.560;2023-04-08T06:34:22;11.98;;;7.20;;
31095;SDS011;17749;51.962;8.560;2023-04-08T06:36:49;12.07;;;7.95;;
31095;SDS011;17749;51.962;8.560;2023-04-08T06:39:16;13.27;;;9.30;;
31095;SDS011;17749;51.962;8.560;2023-04-08T06:41:45;15.30;;;8.32;;
31095;SDS011;17749;51.962;8.560;2023-04-08T06:44:25;13.35;;;8.20;;
31095;SDS011;17749;51.962;8.560;2023-04-08T06:46:53;13.70;;;7.80;;
31095;SDS011;17749;51.962;8.560;2023-04-08T06:49:22;13.68;;;8.02;;
31095;SDS011;17749;51.962;8.560;2023-04-08T06:51:49;12.77;;;8.55;;
31095;SDS011;17749;51.962;8.560;2023-04-08T06:54:19;13.55;;;8.32;;
31095;SDS011;17749;51.962;8.560;2023-04-08T06:56:46;13.98;;;8.60;;
31095;SDS011;17749;51.962;8.560;2023-04-08T06:59:13;13.45;;;8.88;;
31095;SDS011;17749;51.962;8.560;2023-04-08T07:01:41;14.40;;;9.38;;
31095;SDS011;17749;51.962;8.560;2023-04-08T07:04:08;15.55;;;9.40;;
31095;SDS011;17749;51.962;8.560;2023-04-08T07:06:38;13.35;;;9.15;;
31095;SDS011;17749;51.962;8.560;2023-04-08T07:09:06;16.52;;;8.90;;
31095;SDS011;17749;51.962;8.560;2023-04-08T07:11:36;14.60;;;8.48;;
31095;SDS011;17749;51.962;8.560;2023-04-08T07:14:10;13.27;;;8.63;;
31095;SDS011;17749;51.962;8.560;2023-04-08T07:16:37;14.88;;;10.23;;
31095;SDS011;17749;51.962;8.560;2023-04-08T07:19:07;18.42;;;9.55;;
31095;SDS011;17749;51.962;8.560;2023-04-08T07:21:34;14.90;;;8.95;;
31095;SDS011;17749;51.962;8.560;2023-04-08T07:24:08;14.98;;;9.32;;
31095;SDS011;17749;51.962;8.560;2023-04-08T07:26:37;14.75;;;8.73;;
31095;SDS011;17749;51.962;8.560;2023-04-08T07:29:04;12.18;;;9.02;;
31095;SDS011;17749;51.962;8.560;2023-04-08T07:31:32;14.50;;;8.13;;
31095;SDS011;17749;51.962;8.560;2023-04-08T07:33:59;16.55;;;9.02;;
31095;SDS011;17749;51.962;8.560;2023-04-08T07:36:26;12.93;;;8.50;;
31095;SDS011;17749;51.962;8.560;2023-04-08T07:38:55;17.38;;;9.68;;
31095;SDS011;17749;51.962;8.560;2023-04-08T07:41:22;15.82;;;9.23;;
31095;SDS011;17749;51.962;8.560;2023-04-08T07:43:49;15.20;;;9.10;;
31095;SDS011;17749;51.962;8.560;2023-04-08T07:46:17;13.88;;;8.75;;
31095;SDS011;17749;51.962;8.560;2023-04-08T07:48:44;13.20;;;8.43;;
31095;SDS011;17749;51.962;8.560;2023-04-08T07:51:11;10.88;;;7.28;;
31095;SDS011;17749;51.962;8.560;2023-04-08T07:53:38;14.10;;;8.43;;
31095;SDS011;17749;51.962;8.560;2023-04-08T07:56:10;12.68;;;8.55;;
31095;SDS011;17749;51.962;8.560;2023-04-08T07:58:38;14.43;;;8.45;;
31095;SDS011;17749;51.962;8.560;2023-04-08T08:01:13;13.75;;;9.25;;
31095;SDS011;17749;51.962;8.560;2023-04-08T08:03:41;15.20;;;8.43;;
31095;SDS011;17749;51.962;8.560;2023-04-08T08:06:10;16.27;;;8.63;;
31095;SDS011;17749;51.962;8.560;2023-04-08T08:08:37;19.20;;;10.45;;
31095;SDS011;17749;51.962;8.560;2023-04-08T08:11:05;15.18;;;8.57;;
31095;SDS011;17749;51.962;8.560;2023-04-08T08:13:32;14.52;;;9.07;;
31095;SDS011;17749;51.962;8.560;2023-04-08T08:16:00;18.50;;;9.18;;
31095;SDS011;17749;51.962;8.560;2023-04-08T08:18:27;18.38;;;9.95;;
31095;SDS011;17749;51.962;8.560;2023-04-08T08:20:54;15.77;;;9.05;;
31095;SDS011;17749;51.962;8.560;2023-04-08T08:23:21;18.63;;;9.85;;
31095;SDS011;17749;51.962;8.560;2023-04-08T08:25:57;19.20;;;10.02;;
31095;SDS011;17749;51.962;8.560;2023-04-08T08:28:29;14.40;;;9.18;;
31095;SDS011;17749;51.962;8.560;2023-04-08T08:30:58;16.10;;;8.77;;
31095;SDS011;17749;51.962;8.560;2023-04-08T08:33:25;14.77;;;8.65;;
31095;SDS011;17749;51.962;8.560;2023-04-08T08:35:52;16.98;;;8.68;;
31095;SDS011;17749;51.962;8.560;2023-04-08T08:40:54;11.95;;;7.38;;
31095;SDS011;17749;51.962;8.560;2023-04-08T08:43:24;14.52;;;8.52;;
31095;SDS011;17749;51.962;8.560;2023-04-08T08:45:52;13.50;;;8.52;;
31095;SDS011;17749;51.962;8.560;2023-04-08T08:48:19;16.35;;;9.02;;
31095;SDS011;17749;51.962;8.560;2023-04-08T08:50:47;16.23;;;9.15;;
31095;SDS011;17749;51.962;8.560;2023-04-08T08:53:16;16.20;;;9.50;;
31095;SDS011;17749;51.962;8.560;2023-04-08T08:55:48;17.17;;;9.13;;
31095;SDS011;17749;51.962;8.560;2023-04-08T08:58:39;23.23;;;10.98;;
31095;SDS011;17749;51.962;8.560;2023-04-08T09:01:32;21.73;;;9.52;;
31095;SDS011;17749;51.962;8.560;2023-04-08T09:04:36;12.90;;;8.00;;
31095;SDS011;17749;51.962;8.560;2023-04-08T09:07:18;14.98;;;9.57;;
31095;SDS011;17749;51.962;8.560;2023-04-08T09:09:50;18.10;;;9.95;;
31095;SDS011;17749;51.962;8.560;2023-04-08T09:12:21;16.17;;;9.95;;
31095;SDS011;17749;51.962;8.560;2023-04-08T09:14:51;16.75;;;9.57;;
31095;SDS011;17749;51.962;8.560;2023-04-08T09:17:40;16.83;;;10.07;;
31095;SDS011;17749;51.962;8.560;2023-04-08T09:20:12;17.45;;;10.52;;
31095;SDS011;17749;51.962;8.560;2023-04-08T09:22:54;20.83;;;11.07;;
31095;SDS011;17749;51.962;8.560;2023-04-08T09:25:29;20.48;;;11.15;;
31095;SDS011;17749;51.962;8.560;2023-04-08T09:28:00;19.45;;;10.75;;
31095;SDS011;17749;51.962;8.560;2023-04-08T09:30:32;21.00;;;11.93;;
31095;SDS011;17749;51.962;8.560;2023-04-08T09:33:02;22.27;;;11.52;;
31095;SDS011;17749;51.962;8.560;2023-04-08T09:35:39;19.90;;;11.55;;
31095;SDS011;17749;51.962;8.560;2023-04-08T09:38:07;18.07;;;10.67;;
31095;SDS011;17749;51.962;8.560;2023-04-08T09:40:35;19.90;;;10.45;;
31095;SDS011;17749;51.962;8.560;2023-04-08T09:43:05;19.45;;;10.63;;
31095;SDS011;17749;51.962;8.560;2023-04-08T09:45:35;22.20;;;11.55;;
31095;SDS011;17749;51.962;8.560;2023-04-08T09:48:09;24.52;;;13.48;;
31095;SDS011;17749;51.962;8.560;2023-04-08T09:50:42;19.53;;;10.23;;
31095;SDS011;17749;51.962;8.560;2023-04-08T09:53:13;20.95;;;11.73;;
31095;SDS011;17749;51.962;8.560;2023-04-08T09:55:49;23.70;;;12.27;;
31095;SDS011;17749;51.962;8.560;2023-04-08T09:58:20;20.35;;;12.15;;
31095;SDS011;17749;51.962;8.560;2023-04-08T10:00:53;23.77;;;12.13;;
31095;SDS011;17749;51.962;8.560;2023-04-08T10:06:06;20.40;;;11.88;;
31095;SDS011;17749;51.962;8.560;2023-04-08T10:08:36;19.23;;;11.80;;
31095;SDS011;17749;51.962;8.560;2023-04-08T10:13:33;22.38;;;12.23;;
31095;SDS011;17749;51.962;8.560;2023-04-08T10:16:18;23.38;;;11.48;;
31095;SDS011;17749;51.962;8.560;2023-04-08T10:18:48;23.45;;;13.00;;
31095;SDS011;17749;51.962;8.560;2023-04-08T10:21:32;24.13;;;13.38;;
31095;SDS011;17749;51.962;8.560;2023-04-08T10:24:09;21.55;;;12.90;;
31095;SDS011;17749;51.962;8.560;2023-04-08T10:31:45;22.75;;;12.50;;
31095;SDS011;17749;51.962;8.560;2023-04-08T10:34:14;21.23;;;13.07;;
31095;SDS011;17749;51.962;8.560;2023-04-08T10:36:54;26.48;;;13.52;;
31095;SDS011;17749;51.962;8.560;2023-04-08T10:39:57;21.67;;;12.52;;
31095;SDS011;17749;51.962;8.560;2023-04-08T10:42:45;22.20;;;13.02;;
31095;SDS011;17749;51.962;8.560;2023-04-08T10:45:21;23.58;;;12.25;;
31095;SDS011;17749;51.962;8.560;2023-04-08T10:53:36;19.88;;;12.23;;
31095;SDS011;17749;51.962;8.560;2023-04-08T10:56:23;25.38;;;12.85;;
31095;SDS011;17749;51.962;8.560;2023-04-08T10:59:01;21.42;;;11.68;;
31095;SDS011;17749;51.962;8.560;2023-04-08T11:01:38;22.25;;;12.40;;
31095;SDS011;17749;51.962;8.560;2023-04-08T11:04:16;20.92;;;12.13;;
31095;SDS011;17749;51.962;8.560;2023-04-08T11:06:57;20.48;;;12.57;;
31095;SDS011;17749;51.962;8.560;2023-04-08T11:09:32;21.65;;;12.75;;
31095;SDS011;17749;51.962;8.560;2023-04-08T11:12:09;23.90;;;13.73;;
31095;SDS011;17749;51.962;8.560;2023-04-08T11:14:51;22.25;;;13.00;;
31095;SDS011;17749;51.962;8.560;2023-04-08T11:17:25;20.73;;;12.18;;
31095;SDS011;17749;51.962;8.560;2023-04-08T11:19:52;21.58;;;12.50;;
31095;SDS011;17749;51.962;8.560;2023-04-08T11:22:20;23.38;;;13.63;;
31095;SDS011;17749;51.962;8.560;2023-04-08T11:24:47;22.17;;;11.63;;
31095;SDS011;17749;51.962;8.560;2023-04-08T11:27:15;20.38;;;13.27;;
31095;SDS011;17749;51.962;8.560;2023-04-08T11:29:42;21.23;;;12.95;;
31095;SDS011;17749;51.962;8.560;2023-04-08T11:32:10;18.58;;;11.93;;
31095;SDS011;17749;51.962;8.560;2023-04-08T11:34:38;24.42;;;12.73;;
31095;SDS011;17749;51.962;8.560;2023-04-08T11:37:06;21.27;;;12.60;;
31095;SDS011;17749;51.962;8.560;2023-04-08T11:39:32;22.92;;;13.43;;
31095;SDS011;17749;51.962;8.560;2023-04-08T11:42:00;21.20;;;13.13;;
31095;SDS011;17749;51.962;8.560;2023-04-08T11:44:30;22.25;;;13.20;;
31095;SDS011;17749;51.962;8.560;2023-04-08T11:47:01;21.13;;;11.45;;
31095;SDS011;17749;51.962;8.560;2023-04-08T11:49:42;22.05;;;13.40;;
31095;SDS011;17749;51.962;8.560;2023-04-08T11:52:10;25.63;;;14.02;;
31095;SDS011;17749;51.962;8.560;2023-04-08T11:54:39;28.70;;;15.95;;
31095;SDS011;17749;51.962;8.560;2023-04-08T11:57:08;25.00;;;14.80;;
31095;SDS011;17749;51.962;8.560;2023-04-08T11:59:36;24.38;;;13.30;;
31095;SDS011;17749;51.962;8.560;2023-04-08T12:02:03;24.30;;;13.68;;
31095;SDS011;17749;51.962;8.560;2023-04-08T12:04:30;22.92;;;12.75;;
31095;SDS011;17749;51.962;8.560;2023-04-08T12:06:58;22.65;;;14.77;;
31095;SDS011;17749;51.962;8.560;2023-04-08T12:09:24;24.90;;;13.38;;
31095;SDS011;17749;51.962;8.560;2023-04-08T12:11:51;23.75;;;14.25;;
31095;SDS011;17749;51.962;8.560;2023-04-08T12:14:18;23.48;;;14.57;;
31095;SDS011;17749;51.962;8.560;2023-04-08T12:16:47;28.10;;;14.88;;
31095;SDS011;17749;51.962;8.560;2023-04-08T12:19:14;28.15;;;15.60;;
31095;SDS011;17749;51.962;8.560;2023-04-08T12:21:41;27.05;;;14.98;;
31095;SDS011;17749;51.962;8.560;2023-04-08T12:24:08;32.20;;;14.48;;
31095;SDS011;17749;51.962;8.560;2023-04-08T12:26:34;25.50;;;14.05;;
31095;SDS011;17749;51.962;8.560;2023-04-08T12:29:01;30.00;;;15.68;;
31095;SDS011;17749;51.962;8.560;2023-04-08T12:31:29;26.00;;;14.48;;
31095;SDS011;17749;51.962;8.560;2023-04-08T12:33:56;25.38;;;14.35;;
31095;SDS011;17749;51.962;8.560;2023-04-08T12:36:23;23.10;;;13.90;;
31095;SDS011;17749;51.962;8.560;2023-04-08T12:38:50;30.00;;;14.75;;
31095;SDS011;17749;51.962;8.560;2023-04-08T12:41:17;23.23;;;14.70;;
31095;SDS011;17749;51.962;8.560;2023-04-08T12:43:44;27.80;;;15.63;;
31095;SDS011;17749;51.962;8.560;2023-04-08T12:46:11;23.27;;;14.05;;
31095;SDS011;17749;51.962;8.560;2023-04-08T12:48:38;23.23;;;14.63;;
31095;SDS011;17749;51.962;8.560;2023-04-08T12:51:06;27.60;;;15.50;;
31095;SDS011;17749;51.962;8.560;2023-04-08T12:53:35;24.73;;;14.32;;
31095;SDS011;17749;51.962;8.560;2023-04-08T12:56:02;28.08;;;14.55;;
31095;SDS011;17749;51.962;8.560;2023-04-08T12:58:29;26.05;;;14.82;;
31095;SDS011;17749;51.962;8.560;2023-04-08T13:00:57;28.15;;;15.77;;
31095;SDS011;17749;51.962;8.560;2023-04-08T13:03:24;24.25;;;15.52;;
31095;SDS011;17749;51.962;8.560;2023-04-08T13:05:51;26.52;;;16.25;;
31095;SDS011;17749;51.962;8.560;2023-04-08T13:08:18;30.50;;;17.60;;
31095;SDS011;17749;51.962;8.560;2023-04-08T13:10:45;27.50;;;17.02;;
31095;SDS011;17749;51.962;8.560;2023-04-08T13:13:12;27.83;;;16.30;;
31095;SDS011;17749;51.962;8.560;2023-04-08T13:15:39;34.20;;;16.23;;
31095;SDS011;17749;51.962;8.560;2023-04-08T13:18:06;32.83;;;16.50;;
31095;SDS011;17749;51.962;8.560;2023-04-08T13:20:33;30.67;;;15.70;;
31095;SDS011;17749;51.962;8.560;2023-04-08T13:23:00;27.98;;;16.25;;
31095;SDS011;17749;51.962;8.560;2023-04-08T13:25:27;27.05;;;15.90;;
31095;SDS011;17749;51.962;8.560;2023-04-08T13:27:54;28.65;;;15.50;;
31095;SDS011;17749;51.962;8.560;2023-04-08T13:30:21;29.20;;;16.17;;
31095;SDS011;17749;51.962;8.560;2023-04-08T13:32:48;31.35;;;16.45;;
31095;SDS011;17749;51.962;8.560;2023-04-08T13:35:15;28.63;;;15.52;;
31095;SDS011;17749;51.962;8.560;2023-04-08T13:37:42;27.38;;;16.25;;
31095;SDS011;17749;51.962;8.560;2023-04-08T13:40:09;25.40;;;15.60;;
31095;SDS011;17749;51.962;8.560;2023-04-08T13:42:37;28.70;;;16.58;;
31095;SDS011;17749;51.962;8.560;2023-04-08T13:45:04;25.75;;;15.77;;
31095;SDS011;17749;51.962;8.560;2023-04-08T13:47:31;29.20;;;16.77;;
31095;SDS011;17749;51.962;8.560;2023-04-08T13:50:00;25.70;;;15.40;;
31095;SDS011;17749;51.962;8.560;2023-04-08T13:52:27;31.23;;;16.45;;
31095;SDS011;17749;51.962;8.560;2023-04-08T13:54:54;30.88;;;16.25;;
31095;SDS011;17749;51.962;8.560;2023-04-08T13:57:21;24.13;;;15.27;;
31095;SDS011;17749;51.962;8.560;2023-04-08T13:59:48;26.50;;;15.57;;
31095;SDS011;17749;51.962;8.560;2023-04-08T14:02:15;26.77;;;16.25;;
31095;SDS011;17749;51.962;8.560;2023-04-08T14:04:42;30.13;;;16.27;;
31095;SDS011;17749;51.962;8.560;2023-04-08T14:07:12;29.95;;;16.90;;
31095;SDS011;17749;51.962;8.560;2023-04-08T14:09:39;27.92;;;16.67;;
31095;SDS011;17749;51.962;8.560;2023-04-08T14:12:06;24.60;;;15.05;;
31095;SDS011;17749;51.962;8.560;2023-04-08T14:14:33;28.38;;;15.55;;
31095;SDS011;17749;51.962;8.560;2023-04-08T14:17:00;27.13;;;13.77;;
31095;SDS011;17749;51.962;8.560;2023-04-08T14:19:27;26.60;;;15.15;;
31095;SDS011;17749;51.962;8.560;2023-04-08T14:21:54;25.92;;;15.30;;
31095;SDS011;17749;51.962;8.560;2023-04-08T14:24:21;24.73;;;15.40;;
31095;SDS011;17749;51.962;8.560;2023-04-08T14:26:48;24.08;;;14.80;;
31095;SDS011;17749;51.962;8.560;2023-04-08T14:29:16;22.73;;;14.45;;
31095;SDS011;17749;51.962;8.560;2023-04-08T14:31:43;25.45;;;15.27;;
31095;SDS011;17749;51.962;8.560;2023-04-08T14:34:09;25.35;;;15.73;;
31095;SDS011;17749;51.962;8.560;2023-04-08T14:36:36;23.63;;;14.88;;
31095;SDS011;17749;51.962;8.560;2023-04-08T14:39:04;29.15;;;15.40;;
31095;SDS011;17749;51.962;8.560;2023-04-08T14:41:30;26.17;;;15.73;;
31095;SDS011;17749;51.962;8.560;2023-04-08T14:43:57;24.23;;;15.35;;
31095;SDS011;17749;51.962;8.560;2023-04-08T14:46:25;22.92;;;14.30;;
31095;SDS011;17749;51.962;8.560;2023-04-08T14:48:54;23.88;;;14.45;;
31095;SDS011;17749;51.962;8.560;2023-04-08T14:51:21;25.17;;;14.50;;
31095;SDS011;17749;51.962;8.560;2023-04-08T14:53:48;26.55;;;16.77;;
31095;SDS011;17749;51.962;8.560;2023-04-08T14:56:15;23.23;;;14.80;;
31095;SDS011;17749;51.962;8.560;2023-04-08T14:58:42;27.00;;;16.38;;
31095;SDS011;17749;51.962;8.560;2023-04-08T15:01:09;24.58;;;14.40;;
31095;SDS011;17749;51.962;8.560;2023-04-08T15:03:37;26.65;;;15.23;;
31095;SDS011;17749;51.962;8.560;2023-04-08T15:06:04;24.05;;;15.10;;
31095;SDS011;17749;51.962;8.560;2023-04-08T15:08:32;23.55;;;15.55;;
31095;SDS011;17749;51.962;8.560;2023-04-08T15:11:00;23.95;;;13.32;;
31095;SDS011;17749;51.962;8.560;2023-04-08T15:13:27;26.13;;;15.32;;
31095;SDS011;17749;51.962;8.560;2023-04-08T15:15:54;25.55;;;14.82;;
31095;SDS011;17749;51.962;8.560;2023-04-08T15:18:21;30.00;;;15.95;;
31095;SDS011;17749;51.962;8.560;2023-04-08T15:20:48;23.65;;;13.93;;
31095;SDS011;17749;51.962;8.560;2023-04-08T15:23:15;24.17;;;15.82;;
31095;SDS011;17749;51.962;8.560;2023-04-08T15:25:42;23.58;;;14.57;;
31095;SDS011;17749;51.962;8.560;2023-04-08T15:28:09;26.85;;;16.70;;
31095;SDS011;17749;51.962;8.560;2023-04-08T15:30:36;23.15;;;15.15;;
31095;SDS011;17749;51.962;8.560;2023-04-08T15:33:03;28.13;;;16.73;;
31095;SDS011;17749;51.962;8.560;2023-04-08T15:35:31;26.92;;;15.95;;
31095;SDS011;17749;51.962;8.560;2023-04-08T15:37:59;26.20;;;16.58;;
31095;SDS011;17749;51.962;8.560;2023-04-08T15:40:26;24.70;;;15.57;;
31095;SDS011;17749;51.962;8.560;2023-04-08T15:42:53;23.02;;;13.77;;
31095;SDS011;17749;51.962;8.560;2023-04-08T15:45:20;24.45;;;15.85;;
31095;SDS011;17749;51.962;8.560;2023-04-08T15:47:47;22.17;;;13.25;;
31095;SDS011;17749;51.962;8.560;2023-04-08T15:50:14;24.83;;;14.70;;
31095;SDS011;17749;51.962;8.560;2023-04-08T15:52:43;24.77;;;15.15;;
31095;SDS011;17749;51.962;8.560;2023-04-08T15:55:10;20.20;;;13.45;;
31095;SDS011;17749;51.962;8.560;2023-04-08T15:57:37;25.42;;;14.07;;
31095;SDS011;17749;51.962;8.560;2023-04-08T16:00:08;26.88;;;14.95;;
31095;SDS011;17749;51.962;8.560;2023-04-08T16:02:38;27.00;;;15.32;;
31095;SDS011;17749;51.962;8.560;2023-04-08T16:05:06;26.85;;;15.60;;
31095;SDS011;17749;51.962;8.560;2023-04-08T16:07:33;23.52;;;14.25;;
31095;SDS011;17749;51.962;8.560;2023-04-08T16:10:00;27.10;;;15.35;;
31095;SDS011;17749;51.962;8.560;2023-04-08T16:12:27;24.92;;;15.55;;
31095;SDS011;17749;51.962;8.560;2023-04-08T16:14:54;24.23;;;14.50;;
31095;SDS011;17749;51.962;8.560;2023-04-08T16:17:21;24.27;;;14.82;;
31095;SDS011;17749;51.962;8.560;2023-04-08T16:19:49;25.08;;;15.80;;
31095;SDS011;17749;51.962;8.560;2023-04-08T16:22:17;28.27;;;17.73;;
31095;SDS011;17749;51.962;8.560;2023-04-08T16:24:44;29.70;;;16.13;;
31095;SDS011;17749;51.962;8.560;2023-04-08T16:27:11;27.08;;;16.92;;
31095;SDS011;17749;51.962;8.560;2023-04-08T16:29:38;32.50;;;18.95;;
31095;SDS011;17749;51.962;8.560;2023-04-08T16:32:06;28.90;;;18.35;;
31095;SDS011;17749;51.962;8.560;2023-04-08T16:34:34;32.63;;;17.67;;
31095;SDS011;17749;51.962;8.560;2023-04-08T16:37:01;30.00;;;18.50;;
31095;SDS011;17749;51.962;8.560;2023-04-08T16:39:29;31.25;;;18.50;;
31095;SDS011;17749;51.962;8.560;2023-04-08T16:41:56;29.45;;;18.30;;
31095;SDS011;17749;51.962;8.560;2023-04-08T16:44:22;28.50;;;18.35;;
31095;SDS011;17749;51.962;8.560;2023-04-08T16:46:49;31.33;;;19.08;;
31095;SDS011;17749;51.962;8.560;2023-04-08T16:49:16;30.02;;;18.77;;
31095;SDS011;17749;51.962;8.560;2023-04-08T16:51:43;31.23;;;18.58;;
31095;SDS011;17749;51.962;8.560;2023-04-08T16:54:10;31.35;;;17.95;;
31095;SDS011;17749;51.962;8.560;2023-04-08T16:56:37;29.83;;;17.20;;
31095;SDS011;17749;51.962;8.560;2023-04-08T16:59:10;32.72;;;19.88;;
31095;SDS011;17749;51.962;8.560;2023-04-08T17:01:38;27.75;;;18.73;;
31095;SDS011;17749;51.962;8.560;2023-04-08T17:04:05;28.80;;;18.83;;
31095;SDS011;17749;51.962;8.560;2023-04-08T17:06:32;31.92;;;18.15;;
31095;SDS011;17749;51.962;8.560;2023-04-08T17:09:00;29.48;;;18.25;;
31095;SDS011;17749;51.962;8.560;2023-04-08T17:11:29;28.92;;;17.27;;
31095;SDS011;17749;51.962;8.560;2023-04-08T17:13:56;31.63;;;18.70;;
31095;SDS011;17749;51.962;8.560;2023-04-08T17:16:23;35.42;;;20.50;;
31095;SDS011;17749;51.962;8.560;2023-04-08T17:18:51;31.80;;;17.85;;
31095;SDS011;17749;51.962;8.560;2023-04-08T17:21:18;31.63;;;18.58;;
31095;SDS011;17749;51.962;8.560;2023-04-08T17:23:45;30.42;;;17.77;;
31095;SDS011;17749;51.962;8.560;2023-04-08T17:26:12;31.27;;;19.50;;
31095;SDS011;17749;51.962;8.560;2023-04-08T17:28:39;33.88;;;18.65;;
31095;SDS011;17749;51.962;8.560;2023-04-08T17:31:06;31.10;;;18.98;;
31095;SDS011;17749;51.962;8.560;2023-04-08T17:33:33;34.55;;;20.00;;
31095;SDS011;17749;51.962;8.560;2023-04-08T17:36:00;31.65;;;19.23;;
31095;SDS011;17749;51.962;8.560;2023-04-08T17:38:27;27.55;;;17.15;;
31095;SDS011;17749;51.962;8.560;2023-04-08T17:40:54;28.48;;;18.48;;
31095;SDS011;17749;51.962;8.560;2023-04-08T17:43:21;35.53;;;20.20;;
31095;SDS011;17749;51.962;8.560;2023-04-08T17:45:47;30.10;;;17.73;;
31095;SDS011;17749;51.962;8.560;2023-04-08T17:48:16;29.40;;;17.60;;
31095;SDS011;17749;51.962;8.560;2023-04-08T17:50:44;29.05;;;18.48;;
31095;SDS011;17749;51.962;8.560;2023-04-08T17:53:11;32.03;;;19.08;;
31095;SDS011;17749;51.962;8.560;2023-04-08T17:55:38;32.25;;;19.25;;
31095;SDS011;17749;51.962;8.560;2023-04-08T17:58:04;31.85;;;18.98;;
31095;SDS011;17749;51.962;8.560;2023-04-08T18:00:31;30.35;;;18.27;;
31095;SDS011;17749;51.962;8.560;2023-04-08T18:02:58;33.78;;;19.80;;
31095;SDS011;17749;51.962;8.560;2023-04-08T18:05:25;30.73;;;19.25;;
31095;SDS011;17749;51.962;8.560;2023-04-08T18:07:52;33.38;;;20.02;;
31095;SDS011;17749;51.962;8.560;2023-04-08T18:10:19;32.35;;;18.95;;
31095;SDS011;17749;51.962;8.560;2023-04-08T18:12:48;33.28;;;20.42;;
31095;SDS011;17749;51.962;8.560;2023-04-08T18:15:23;37.22;;;20.75;;
31095;SDS011;17749;51.962;8.560;2023-04-08T18:17:50;37.25;;;21.33;;
31095;SDS011;17749;51.962;8.560;2023-04-08T18:20:17;38.60;;;21.15;;
31095;SDS011;17749;51.962;8.560;2023-04-08T18:22:44;37.45;;;21.77;;
31095;SDS011;17749;51.962;8.560;2023-04-08T18:25:11;38.17;;;22.02;;
31095;SDS011;17749;51.962;8.560;2023-04-08T18:27:38;35.08;;;21.08;;
31095;SDS011;17749;51.962;8.560;2023-04-08T18:30:06;39.70;;;21.73;;
31095;SDS011;17749;51.962;8.560;2023-04-08T18:32:33;42.58;;;22.17;;
31095;SDS011;17749;51.962;8.560;2023-04-08T18:35:00;38.83;;;21.50;;
31095;SDS011;17749;51.962;8.560;2023-04-08T18:37:27;36.22;;;21.27;;
31095;SDS011;17749;51.962;8.560;2023-04-08T18:39:55;36.78;;;20.92;;
31095;SDS011;17749;51.962;8.560;2023-04-08T18:42:24;34.72;;;19.27;;
31095;SDS011;17749;51.962;8.560;2023-04-08T18:44:51;42.95;;;22.80;;
31095;SDS011;17749;51.962;8.560;2023-04-08T18:47:18;42.45;;;24.17;;
31095;SDS011;17749;51.962;8.560;2023-04-08T18:49:45;37.53;;;21.77;;
31095;SDS011;17749;51.962;8.560;2023-04-08T18:52:12;40.72;;;21.85;;
31095;SDS011;17749;51.962;8.560;2023-04-08T18:54:39;40.13;;;23.27;;
31095;SDS011;17749;51.962;8.560;2023-04-08T18:57:06;45.00;;;22.60;;
31095;SDS011;17749;51.962;8.560;2023-04-08T18:59:33;46.08;;;24.40;;
31095;SDS011;17749;51.962;8.560;2023-04-08T19:02:00;46.03;;;25.45;;
31095;SDS011;17749;51.962;8.560;2023-04-08T19:04:27;41.60;;;23.45;;
31095;SDS011;17749;51.962;8.560;2023-04-08T19:06:54;44.67;;;25.63;;
31095;SDS011;17749;51.962;8.560;2023-04-08T19:09:21;46.38;;;24.90;;
31095;SDS011;17749;51.962;8.560;2023-04-08T19:11:49;40.75;;;22.33;;
31095;SDS011;17749;51.962;8.560;2023-04-08T19:14:16;43.63;;;23.17;;
31095;SDS011;17749;51.962;8.560;2023-04-08T19:16:43;40.22;;;24.67;;
31095;SDS011;17749;51.962;8.560;2023-04-08T19:19:10;40.03;;;23.48;;
31095;SDS011;17749;51.962;8.560;2023-04-08T19:21:37;42.20;;;23.38;;
31095;SDS011;17749;51.962;8.560;2023-04-08T19:24:04;40.28;;;23.20;;
31095;SDS011;17749;51.962;8.560;2023-04-08T19:26:32;39.90;;;23.33;;
31095;SDS011;17749;51.962;8.560;2023-04-08T19:28:59;42.30;;;22.52;;
31095;SDS011;17749;51.962;8.560;2023-04-08T19:31:26;44.30;;;23.63;;
31095;SDS011;17749;51.962;8.560;2023-04-08T19:33:54;38.05;;;21.13;;
31095;SDS011;17749;51.962;8.560;2023-04-08T19:36:21;40.55;;;21.20;;
31095;SDS011;17749;51.962;8.560;2023-04-08T19:38:48;37.35;;;21.23;;
31095;SDS011;17749;51.962;8.560;2023-04-08T19:41:15;36.10;;;19.20;;
31095;SDS011;17749;51.962;8.560;2023-04-08T19:43:42;38.72;;;20.65;;
31095;SDS011;17749;51.962;8.560;2023-04-08T19:46:09;32.30;;;19.15;;
31095;SDS011;17749;51.962;8.560;2023-04-08T19:48:36;33.08;;;20.17;;
31095;SDS011;17749;51.962;8.560;2023-04-08T19:51:03;34.65;;;19.02;;
31095;SDS011;17749;51.962;8.560;2023-04-08T19:53:30;31.38;;;18.73;;